createdAt,value
2018-05-09T00:00:08.355Z,0
2018-05-09T00:00:48.858Z,0
2018-05-09T00:01:29.322Z,0
2018-05-09T00:02:09.849Z,0
2018-05-09T00:02:50.296Z,0
2018-05-09T00:03:30.773Z,0
2018-05-09T00:04:11.269Z,0
2018-05-09T00:04:51.773Z,0
2018-05-09T00:05:32.297Z,0
2018-05-09T00:06:12.760Z,0
2018-05-09T00:06:53.222Z,0
2018-05-09T00:07:33.767Z,0
2018-05-09T00:08:14.261Z,0
2018-05-09T00:08:54.757Z,0
2018-05-09T00:09:35.224Z,0
2018-05-09T00:10:15.753Z,0
2018-05-09T00:10:56.244Z,0
2018-05-09T00:11:36.703Z,0
2018-05-09T00:12:17.197Z,0
2018-05-09T00:12:57.689Z,0
2018-05-09T00:13:38.166Z,0
2018-05-09T00:14:18.675Z,0
2018-05-09T00:14:59.170Z,0
2018-05-09T00:15:39.644Z,0
2018-05-09T00:16:20.142Z,0
2018-05-09T00:17:00.601Z,0
2018-05-09T00:17:41.119Z,0
2018-05-09T00:18:21.621Z,0
2018-05-09T00:19:02.109Z,0
2018-05-09T00:19:42.606Z,0
2018-05-09T00:20:23.108Z,0
2018-05-09T00:21:03.591Z,0
2018-05-09T00:21:44.079Z,0
2018-05-09T00:22:24.566Z,0
2018-05-09T00:23:05.081Z,0
2018-05-09T00:23:45.551Z,0
2018-05-09T00:24:26.050Z,0
2018-05-09T00:25:06.543Z,0
2018-05-09T00:25:47.034Z,0
2018-05-09T00:26:27.513Z,0
2018-05-09T00:27:08.018Z,0
2018-05-09T00:27:48.498Z,0
2018-05-09T00:28:29.015Z,0
2018-05-09T00:29:09.486Z,0
2018-05-09T00:29:49.983Z,0
2018-05-09T00:30:30.441Z,0
2018-05-09T00:31:10.986Z,0
2018-05-09T00:31:51.413Z,0
2018-05-09T00:32:31.938Z,0
2018-05-09T00:33:12.423Z,0
2018-05-09T00:33:52.914Z,0
2018-05-09T00:34:33.409Z,0
2018-05-09T00:35:13.909Z,0
2018-05-09T00:35:54.382Z,0
2018-05-09T00:36:34.868Z,0
2018-05-09T00:37:15.328Z,0
2018-05-09T00:37:55.818Z,0
2018-05-09T00:38:36.305Z,0
2018-05-09T00:39:16.781Z,0
2018-05-09T00:39:57.265Z,0
2018-05-09T00:40:37.743Z,0
2018-05-09T00:41:18.227Z,0
2018-05-09T00:41:58.696Z,0
2018-05-09T00:42:39.167Z,0
2018-05-09T00:43:19.666Z,0
2018-05-09T00:44:00.172Z,0
2018-05-09T00:44:40.707Z,0
2018-05-09T00:45:21.179Z,0
2018-05-09T00:46:01.667Z,0
2018-05-09T00:46:42.176Z,0
2018-05-09T00:47:22.658Z,0
2018-05-09T00:48:03.153Z,0
2018-05-09T00:48:43.626Z,0
2018-05-09T00:49:24.098Z,0
2018-05-09T00:50:04.622Z,0
2018-05-09T00:50:45.098Z,0
2018-05-09T00:51:25.607Z,0
2018-05-09T00:52:06.113Z,0
2018-05-09T00:52:46.599Z,0
2018-05-09T00:53:27.073Z,0
2018-05-09T00:54:07.543Z,0
2018-05-09T00:54:48.028Z,0
2018-05-09T00:55:28.528Z,0
2018-05-09T00:56:08.997Z,0
2018-05-09T00:56:49.495Z,0
2018-05-09T00:57:29.979Z,0
2018-05-09T00:58:10.476Z,0
2018-05-09T00:58:50.973Z,0
2018-05-09T00:59:31.471Z,0
2018-05-09T01:00:11.982Z,0
2018-05-09T01:00:52.452Z,0
2018-05-09T01:01:32.978Z,0
2018-05-09T01:02:13.437Z,0
2018-05-09T01:02:53.986Z,0
2018-05-09T01:03:34.472Z,0
2018-05-09T01:04:14.941Z,0
2018-05-09T01:04:55.540Z,0
2018-05-09T01:05:35.981Z,0
2018-05-09T01:06:16.451Z,0
2018-05-09T01:06:56.939Z,0
2018-05-09T01:07:37.441Z,0
2018-05-09T01:08:17.911Z,0
2018-05-09T01:08:58.425Z,0
2018-05-09T01:09:38.929Z,0
2018-05-09T01:10:19.411Z,0
2018-05-09T01:10:59.867Z,0
2018-05-09T01:11:40.338Z,0
2018-05-09T01:12:20.871Z,0
2018-05-09T01:13:01.384Z,0
2018-05-09T01:13:41.841Z,0
2018-05-09T01:14:22.339Z,0
2018-05-09T01:15:02.858Z,0
2018-05-09T01:15:43.358Z,0
2018-05-09T01:16:23.824Z,0
2018-05-09T01:17:04.324Z,0
2018-05-09T01:17:44.832Z,0
2018-05-09T01:18:25.329Z,0
2018-05-09T01:19:05.853Z,0
2018-05-09T01:19:46.336Z,0
2018-05-09T01:20:26.792Z,0
2018-05-09T01:21:07.265Z,0
2018-05-09T01:21:47.727Z,0
2018-05-09T01:22:28.190Z,0
2018-05-09T01:23:08.677Z,0
2018-05-09T01:23:49.251Z,0
2018-05-09T01:24:29.655Z,0
2018-05-09T01:25:10.189Z,0
2018-05-09T01:25:50.696Z,0
2018-05-09T01:26:31.162Z,0
2018-05-09T01:27:11.643Z,0
2018-05-09T01:27:52.161Z,0
2018-05-09T01:28:32.644Z,0
2018-05-09T01:29:13.152Z,0
2018-05-09T01:29:53.626Z,0
2018-05-09T01:30:34.168Z,0
2018-05-09T01:31:14.615Z,0
2018-05-09T01:31:55.106Z,0
2018-05-09T01:32:35.599Z,0
2018-05-09T01:33:16.088Z,0
2018-05-09T01:33:56.570Z,0
2018-05-09T01:34:37.075Z,0
2018-05-09T01:35:17.561Z,0
2018-05-09T01:35:58.046Z,0
2018-05-09T01:36:38.530Z,0
2018-05-09T01:37:19.106Z,0
2018-05-09T01:37:59.560Z,0
2018-05-09T01:38:40.047Z,0
2018-05-09T01:39:20.560Z,0
2018-05-09T01:40:01.049Z,0
2018-05-09T01:40:41.551Z,0
2018-05-09T01:41:22.049Z,0
2018-05-09T01:42:02.564Z,0
2018-05-09T01:42:43.034Z,0
2018-05-09T01:43:23.513Z,0
2018-05-09T01:44:04.022Z,0
2018-05-09T01:44:44.460Z,0
2018-05-09T01:45:24.961Z,0
2018-05-09T01:46:05.427Z,0
2018-05-09T01:46:45.922Z,0
2018-05-09T01:47:26.413Z,0
2018-05-09T01:48:06.928Z,0
2018-05-09T01:48:47.432Z,0
2018-05-09T01:49:27.881Z,0
2018-05-09T01:50:08.411Z,0
2018-05-09T01:50:48.907Z,0
2018-05-09T01:51:29.419Z,0
2018-05-09T01:52:09.900Z,0
2018-05-09T01:52:50.418Z,0
2018-05-09T01:53:30.872Z,0
2018-05-09T01:54:11.383Z,0
2018-05-09T01:54:51.945Z,0
2018-05-09T01:55:32.382Z,0
2018-05-09T01:56:12.858Z,0
2018-05-09T01:56:53.349Z,0
2018-05-09T01:57:33.836Z,0
2018-05-09T01:58:14.338Z,0
2018-05-09T01:58:54.826Z,0
2018-05-09T01:59:35.305Z,0
2018-05-09T02:00:15.791Z,0
2018-05-09T02:00:56.255Z,0
2018-05-09T02:01:36.781Z,0
2018-05-09T02:02:17.242Z,0
2018-05-09T02:02:57.730Z,0
2018-05-09T02:03:38.208Z,0
2018-05-09T02:04:18.713Z,0
2018-05-09T02:04:59.187Z,0
2018-05-09T02:05:39.689Z,0
2018-05-09T02:06:20.189Z,0
2018-05-09T02:07:00.685Z,0
2018-05-09T02:07:41.204Z,0
2018-05-09T02:08:21.662Z,0
2018-05-09T02:09:02.138Z,0
2018-05-09T02:09:42.639Z,0
2018-05-09T02:10:23.104Z,0
2018-05-09T02:11:03.591Z,0
2018-05-09T02:11:44.049Z,0
2018-05-09T02:12:24.531Z,0
2018-05-09T02:13:05.049Z,0
2018-05-09T02:13:45.530Z,0
2018-05-09T02:14:25.985Z,0
2018-05-09T02:15:06.466Z,0
2018-05-09T02:15:46.948Z,0
2018-05-09T02:16:27.422Z,0
2018-05-09T02:17:07.977Z,0
2018-05-09T02:17:48.434Z,0
2018-05-09T02:18:28.944Z,0
2018-05-09T02:19:09.402Z,0
2018-05-09T02:19:49.917Z,0
2018-05-09T02:20:30.392Z,0
2018-05-09T02:21:10.874Z,0
2018-05-09T02:21:51.379Z,0
2018-05-09T02:22:31.875Z,0
2018-05-09T02:23:12.403Z,0
2018-05-09T02:23:52.844Z,0
2018-05-09T02:24:33.364Z,0
2018-05-09T02:25:13.843Z,0
2018-05-09T02:25:54.295Z,0
2018-05-09T02:26:34.790Z,0
2018-05-09T02:27:15.243Z,0
2018-05-09T02:27:55.755Z,0
2018-05-09T02:28:36.218Z,0
2018-05-09T02:29:16.769Z,0
2018-05-09T02:29:57.223Z,0
2018-05-09T02:30:37.699Z,0
2018-05-09T02:31:18.244Z,0
2018-05-09T02:31:58.704Z,0
2018-05-09T02:32:39.233Z,0
2018-05-09T02:33:19.705Z,0
2018-05-09T02:34:00.233Z,0
2018-05-09T02:34:40.685Z,0
2018-05-09T02:35:21.200Z,0
2018-05-09T02:36:01.693Z,0
2018-05-09T02:36:42.201Z,0
2018-05-09T02:37:22.727Z,0
2018-05-09T02:38:03.191Z,0
2018-05-09T02:38:43.664Z,0
2018-05-09T02:39:24.201Z,0
2018-05-09T02:40:04.696Z,0
2018-05-09T02:40:45.157Z,0
2018-05-09T02:41:25.652Z,0
2018-05-09T02:42:06.172Z,0
2018-05-09T02:42:46.708Z,0
2018-05-09T02:43:27.172Z,0
2018-05-09T02:44:07.661Z,0
2018-05-09T02:44:48.199Z,0
2018-05-09T02:45:28.667Z,0
2018-05-09T02:46:09.138Z,0
2018-05-09T02:46:49.612Z,0
2018-05-09T02:47:30.083Z,0
2018-05-09T02:48:10.586Z,0
2018-05-09T02:48:51.035Z,0
2018-05-09T02:49:31.534Z,0
2018-05-09T02:50:12.013Z,0
2018-05-09T02:50:52.492Z,0
2018-05-09T02:51:32.958Z,0
2018-05-09T02:52:13.464Z,0
2018-05-09T02:52:54.020Z,0
2018-05-09T02:53:34.523Z,0
2018-05-09T02:54:15.014Z,0
2018-05-09T02:54:55.476Z,0
2018-05-09T02:55:35.960Z,0
2018-05-09T02:56:16.462Z,0
2018-05-09T02:56:56.947Z,0
2018-05-09T02:57:37.462Z,0
2018-05-09T02:58:17.965Z,0
2018-05-09T02:58:58.409Z,0
2018-05-09T02:59:38.898Z,0
2018-05-09T03:00:19.372Z,0
2018-05-09T03:00:59.853Z,0
2018-05-09T03:01:40.324Z,0
2018-05-09T03:02:20.842Z,0
2018-05-09T03:03:01.356Z,0
2018-05-09T03:03:41.821Z,0
2018-05-09T03:04:22.353Z,0
2018-05-09T03:05:02.786Z,0
2018-05-09T03:05:43.298Z,0
2018-05-09T03:06:23.871Z,0
2018-05-09T03:07:04.279Z,0
2018-05-09T03:07:44.789Z,0
2018-05-09T03:08:25.244Z,0
2018-05-09T03:09:05.739Z,0
2018-05-09T03:09:46.252Z,0
2018-05-09T03:10:26.782Z,0
2018-05-09T03:11:07.215Z,0
2018-05-09T03:11:47.744Z,0
2018-05-09T03:12:28.252Z,0
2018-05-09T03:13:08.725Z,0
2018-05-09T03:13:49.182Z,0
2018-05-09T03:14:29.656Z,0
2018-05-09T03:15:10.181Z,0
2018-05-09T03:15:50.688Z,4
2018-05-09T03:16:31.146Z,4
2018-05-09T03:17:11.626Z,4
2018-05-09T03:17:52.126Z,0
2018-05-09T03:18:32.649Z,0
2018-05-09T03:19:13.149Z,4
2018-05-09T03:19:53.615Z,4
2018-05-09T03:20:34.140Z,4
2018-05-09T03:21:14.596Z,0
2018-05-09T03:21:55.126Z,4
2018-05-09T03:22:35.614Z,4
2018-05-09T03:23:16.071Z,4
2018-05-09T03:23:56.538Z,4
2018-05-09T03:24:37.050Z,4
2018-05-09T03:25:17.541Z,8
2018-05-09T03:25:58.029Z,4
2018-05-09T03:26:38.522Z,8
2018-05-09T03:27:18.982Z,8
2018-05-09T03:27:59.489Z,8
2018-05-09T03:28:39.970Z,12
2018-05-09T03:29:20.452Z,12
2018-05-09T03:30:00.962Z,12
2018-05-09T03:30:41.477Z,12
2018-05-09T03:31:22.003Z,16
2018-05-09T03:32:02.432Z,16
2018-05-09T03:32:42.923Z,20
2018-05-09T03:33:23.403Z,24
2018-05-09T03:34:03.906Z,20
2018-05-09T03:34:44.419Z,24
2018-05-09T03:35:24.910Z,28
2018-05-09T03:36:05.378Z,28
2018-05-09T03:36:45.854Z,32
2018-05-09T03:37:26.398Z,36
2018-05-09T03:38:06.853Z,40
2018-05-09T03:38:47.317Z,40
2018-05-09T03:39:27.833Z,48
2018-05-09T03:40:08.311Z,48
2018-05-09T03:40:48.816Z,52
2018-05-09T03:41:29.254Z,56
2018-05-09T03:42:09.721Z,60
2018-05-09T03:42:50.246Z,68
2018-05-09T03:43:30.737Z,72
2018-05-09T03:44:11.226Z,72
2018-05-09T03:44:51.740Z,80
2018-05-09T03:45:32.200Z,88
2018-05-09T03:46:12.713Z,92
2018-05-09T03:46:53.232Z,96
2018-05-09T03:47:33.714Z,104
2018-05-09T03:48:14.199Z,112
2018-05-09T03:48:54.680Z,116
2018-05-09T03:49:35.916Z,124
2018-05-09T03:50:17.149Z,128
2018-05-09T03:50:56.909Z,140
2018-05-09T03:51:38.151Z,144
2018-05-09T03:52:19.647Z,152
2018-05-09T03:53:00.200Z,164
2018-05-09T03:53:41.587Z,172
2018-05-09T03:54:23.176Z,180
2018-05-09T03:55:04.099Z,188
2018-05-09T03:55:44.591Z,200
2018-05-09T03:56:26.084Z,204
2018-05-09T03:57:09.164Z,216
2018-05-09T03:57:49.649Z,224
2018-05-09T03:58:30.204Z,236
2018-05-09T03:59:10.703Z,248
2018-05-09T03:59:51.193Z,256
2018-05-09T04:00:31.707Z,268
2018-05-09T04:01:12.199Z,280
2018-05-09T04:01:52.691Z,292
2018-05-09T04:02:33.163Z,304
2018-05-09T04:03:13.679Z,316
2018-05-09T04:03:54.808Z,328
2018-05-09T04:04:35.344Z,344
2018-05-09T04:05:15.816Z,360
2018-05-09T04:05:57.048Z,376
2018-05-09T04:06:37.552Z,392
2018-05-09T04:07:18.657Z,408
2018-05-09T04:07:59.425Z,424
2018-05-09T04:08:39.938Z,444
2018-05-09T04:09:20.421Z,464
2018-05-09T04:10:00.930Z,484
2018-05-09T04:10:41.387Z,500
2018-05-09T04:11:21.921Z,520
2018-05-09T04:12:02.377Z,540
2018-05-09T04:12:42.892Z,572
2018-05-09T04:13:23.361Z,604
2018-05-09T04:14:03.821Z,644
2018-05-09T04:14:44.309Z,688
2018-05-09T04:15:24.808Z,728
2018-05-09T04:16:05.324Z,772
2018-05-09T04:16:45.829Z,816
2018-05-09T04:17:26.268Z,848
2018-05-09T04:18:06.822Z,884
2018-05-09T04:18:47.324Z,916
2018-05-09T04:19:27.838Z,948
2018-05-09T04:20:08.299Z,984
2018-05-09T04:20:48.810Z,1020
2018-05-09T04:21:29.306Z,1048
2018-05-09T04:22:09.757Z,1080
2018-05-09T04:22:50.257Z,1112
2018-05-09T04:23:30.710Z,1144
2018-05-09T04:24:11.267Z,1176
2018-05-09T04:24:51.708Z,1204
2018-05-09T04:25:32.185Z,1236
2018-05-09T04:26:12.657Z,1272
2018-05-09T04:26:53.187Z,1300
2018-05-09T04:27:33.656Z,1332
2018-05-09T04:28:14.167Z,1364
2018-05-09T04:28:54.625Z,1392
2018-05-09T04:29:35.126Z,1432
2018-05-09T04:30:15.624Z,1464
2018-05-09T04:30:56.081Z,1500
2018-05-09T04:31:36.561Z,1536
2018-05-09T04:32:17.080Z,1572
2018-05-09T04:32:57.568Z,1600
2018-05-09T04:33:38.058Z,1640
2018-05-09T04:34:18.551Z,1668
2018-05-09T04:34:58.995Z,1704
2018-05-09T04:35:39.519Z,1732
2018-05-09T04:36:20.127Z,1764
2018-05-09T04:37:00.520Z,1796
2018-05-09T04:37:41.030Z,1828
2018-05-09T04:38:21.520Z,1876
2018-05-09T04:39:02.032Z,1920
2018-05-09T04:39:42.512Z,1940
2018-05-09T04:40:24.445Z,1972
2018-05-09T04:41:04.920Z,2012
2018-05-09T04:41:45.412Z,2032
2018-05-09T04:42:25.979Z,2084
2018-05-09T04:43:06.376Z,2124
2018-05-09T04:43:46.941Z,2156
2018-05-09T04:44:27.567Z,2200
2018-05-09T04:45:07.916Z,2264
2018-05-09T04:45:48.401Z,2332
2018-05-09T04:46:28.883Z,2372
2018-05-09T04:47:09.470Z,2408
2018-05-09T04:47:49.890Z,2444
2018-05-09T04:48:30.415Z,2468
2018-05-09T04:49:10.987Z,2520
2018-05-09T04:49:51.405Z,2556
2018-05-09T04:50:31.909Z,2608
2018-05-09T04:51:12.390Z,2660
2018-05-09T04:51:52.863Z,2716
2018-05-09T04:52:33.334Z,2780
2018-05-09T04:53:13.872Z,2824
2018-05-09T04:53:54.363Z,2868
2018-05-09T04:54:34.916Z,2904
2018-05-09T04:55:15.391Z,2916
2018-05-09T04:55:55.891Z,2896
2018-05-09T04:56:36.421Z,2844
2018-05-09T04:57:17.002Z,2832
2018-05-09T04:57:57.418Z,2812
2018-05-09T04:58:37.926Z,2828
2018-05-09T04:59:18.453Z,3000
2018-05-09T04:59:58.925Z,3156
2018-05-09T05:00:39.408Z,3256
2018-05-09T05:01:19.875Z,3076
2018-05-09T05:02:00.439Z,2912
2018-05-09T05:02:40.900Z,2912
2018-05-09T05:03:21.384Z,2944
2018-05-09T05:04:01.926Z,3040
2018-05-09T05:04:42.412Z,3080
2018-05-09T05:05:22.890Z,3044
2018-05-09T05:06:03.379Z,2992
2018-05-09T05:06:43.892Z,2984
2018-05-09T05:07:24.381Z,3000
2018-05-09T05:08:04.873Z,3016
2018-05-09T05:08:45.365Z,3016
2018-05-09T05:09:25.878Z,3028
2018-05-09T05:10:06.419Z,3060
2018-05-09T05:10:46.897Z,3080
2018-05-09T05:11:27.418Z,3088
2018-05-09T05:12:07.962Z,3100
2018-05-09T05:12:48.492Z,3108
2018-05-09T05:13:29.036Z,3120
2018-05-09T05:14:09.470Z,3124
2018-05-09T05:14:49.963Z,3128
2018-05-09T05:15:30.484Z,3140
2018-05-09T05:16:11.065Z,3144
2018-05-09T05:16:51.536Z,3152
2018-05-09T05:17:32.034Z,3172
2018-05-09T05:18:12.572Z,3180
2018-05-09T05:18:53.082Z,3188
2018-05-09T05:19:33.595Z,3204
2018-05-09T05:20:14.122Z,3216
2018-05-09T05:20:54.646Z,3228
2018-05-09T05:21:35.167Z,3236
2018-05-09T05:22:15.685Z,3256
2018-05-09T05:22:56.197Z,3268
2018-05-09T05:23:36.694Z,3280
2018-05-09T05:24:17.204Z,3296
2018-05-09T05:24:57.739Z,3316
2018-05-09T05:25:38.230Z,3332
2018-05-09T05:26:18.732Z,3352
2018-05-09T05:26:59.261Z,3368
2018-05-09T05:27:39.773Z,3384
2018-05-09T05:28:20.280Z,3400
2018-05-09T05:29:00.793Z,3412
2018-05-09T05:29:41.367Z,3424
2018-05-09T05:30:21.862Z,3432
2018-05-09T05:31:02.380Z,3448
2018-05-09T05:31:42.902Z,3460
2018-05-09T05:32:23.401Z,3484
2018-05-09T05:33:03.896Z,3504
2018-05-09T05:33:44.392Z,3520
2018-05-09T05:34:24.897Z,3532
2018-05-09T05:35:05.457Z,3536
2018-05-09T05:35:45.923Z,3560
2018-05-09T05:36:26.541Z,3576
2018-05-09T05:37:07.089Z,3596
2018-05-09T05:37:47.565Z,3620
2018-05-09T05:38:28.246Z,3644
2018-05-09T05:39:08.744Z,3680
2018-05-09T05:39:49.292Z,3740
2018-05-09T05:40:29.848Z,3844
2018-05-09T05:41:10.296Z,4072
2018-05-09T05:41:50.844Z,4428
2018-05-09T05:42:31.436Z,4872
2018-05-09T05:43:11.898Z,5308
2018-05-09T05:43:52.397Z,5676
2018-05-09T05:44:32.918Z,6200
2018-05-09T05:45:13.540Z,6324
2018-05-09T05:45:53.954Z,6404
2018-05-09T05:46:34.508Z,6416
2018-05-09T05:47:15.098Z,6328
2018-05-09T05:47:55.573Z,6320
2018-05-09T05:48:36.100Z,6216
2018-05-09T05:49:16.685Z,6164
2018-05-09T05:49:57.209Z,6084
2018-05-09T05:50:37.734Z,5988
2018-05-09T05:51:18.252Z,5916
2018-05-09T05:51:58.769Z,5792
2018-05-09T05:52:39.291Z,5688
2018-05-09T05:53:19.787Z,5628
2018-05-09T05:54:00.308Z,5588
2018-05-09T05:54:40.839Z,5588
2018-05-09T05:55:21.370Z,5592
2018-05-09T05:56:01.926Z,5696
2018-05-09T05:56:42.431Z,5824
2018-05-09T05:57:22.980Z,5956
2018-05-09T05:58:03.500Z,6044
2018-05-09T06:00:37.187Z,6464
2018-05-09T06:01:17.689Z,6588
2018-05-09T06:01:58.229Z,6676
2018-05-09T06:02:38.739Z,6748
2018-05-09T06:03:19.301Z,6860
2018-05-09T06:03:59.842Z,6940
2018-05-09T06:04:40.341Z,7028
2018-05-09T06:05:20.856Z,7044
2018-05-09T06:06:01.395Z,7040
2018-05-09T06:06:41.908Z,7092
2018-05-09T06:07:22.441Z,7064
2018-05-09T06:08:02.971Z,7064
2018-05-09T06:08:43.456Z,7028
2018-05-09T06:09:24.714Z,6912
2018-05-09T06:10:05.218Z,6796
2018-05-09T06:10:46.007Z,6716
2018-05-09T06:11:26.563Z,6584
2018-05-09T06:12:07.039Z,6472
2018-05-09T06:12:47.649Z,6320
2018-05-09T06:13:28.180Z,6224
2018-05-09T06:14:08.712Z,6128
2018-05-09T06:14:49.239Z,6036
2018-05-09T06:15:29.692Z,5964
2018-05-09T06:16:10.175Z,5912
2018-05-09T06:16:50.688Z,5896
2018-05-09T06:17:31.174Z,5936
2018-05-09T06:18:11.701Z,5992
2018-05-09T06:18:52.227Z,6060
2018-05-09T06:19:32.668Z,6132
2018-05-09T06:20:13.206Z,6188
2018-05-09T06:20:53.744Z,6236
2018-05-09T06:21:34.222Z,6292
2018-05-09T06:22:14.720Z,6336
2018-05-09T06:22:55.230Z,6424
2018-05-09T06:23:35.762Z,6512
2018-05-09T06:24:16.379Z,6576
2018-05-09T06:24:56.800Z,6604
2018-05-09T06:25:37.367Z,6176
2018-05-09T06:26:17.869Z,5744
2018-05-09T06:26:58.397Z,5820
2018-05-09T06:27:38.867Z,6040
2018-05-09T06:28:19.363Z,6304
2018-05-09T06:28:59.852Z,6792
2018-05-09T06:29:40.342Z,6908
2018-05-09T06:30:20.849Z,6988
2018-05-09T06:31:01.467Z,6952
2018-05-09T06:31:41.880Z,6860
2018-05-09T06:32:22.374Z,6512
2018-05-09T06:33:02.895Z,6272
2018-05-09T06:33:43.398Z,6188
2018-05-09T06:34:23.895Z,6260
2018-05-09T06:35:04.393Z,6376
2018-05-09T06:35:44.980Z,6228
2018-05-09T06:36:25.580Z,6264
2018-05-09T06:37:06.141Z,6372
2018-05-09T06:37:46.585Z,6540
2018-05-09T06:38:27.094Z,6440
2018-05-09T06:39:07.602Z,6652
2018-05-09T06:39:48.089Z,6732
2018-05-09T06:40:28.582Z,6980
2018-05-09T06:41:09.096Z,7140
2018-05-09T06:41:49.618Z,7164
2018-05-09T06:42:30.117Z,6952
2018-05-09T06:43:10.655Z,6424
2018-05-09T06:43:51.212Z,6980
2018-05-09T06:44:31.591Z,6988
2018-05-09T06:45:12.123Z,6904
2018-05-09T06:45:52.652Z,6852
2018-05-09T06:46:33.108Z,6916
2018-05-09T06:47:13.545Z,6652
2018-05-09T06:47:54.058Z,6472
2018-05-09T06:48:34.589Z,6624
2018-05-09T06:49:15.047Z,6332
2018-05-09T06:49:55.617Z,6216
2018-05-09T06:50:36.039Z,6224
2018-05-09T06:51:16.532Z,6224
2018-05-09T06:51:57.209Z,6024
2018-05-09T06:52:37.693Z,5988
2018-05-09T06:53:18.222Z,6096
2018-05-09T06:53:58.693Z,6212
2018-05-09T06:54:39.335Z,6364
2018-05-09T06:55:19.990Z,6636
2018-05-09T06:56:00.462Z,6664
2018-05-09T06:56:40.999Z,6560
2018-05-09T06:57:21.465Z,6516
2018-05-09T06:58:02.003Z,6500
2018-05-09T06:58:42.444Z,6276
2018-05-09T06:59:22.974Z,6252
2018-05-09T07:00:03.502Z,6192
2018-05-09T07:00:43.958Z,6024
2018-05-09T07:01:24.501Z,6012
2018-05-09T07:02:05.163Z,6000
2018-05-09T07:02:45.749Z,6016
2018-05-09T07:03:26.265Z,6064
2018-05-09T07:04:06.777Z,6252
2018-05-09T07:04:47.207Z,6376
2018-05-09T07:05:27.743Z,6360
2018-05-09T07:06:08.263Z,6412
2018-05-09T07:06:48.864Z,6228
2018-05-09T07:07:29.240Z,6016
2018-05-09T07:08:09.765Z,6044
2018-05-09T07:08:50.295Z,6096
2018-05-09T07:09:30.770Z,6156
2018-05-09T07:10:11.312Z,6344
2018-05-09T07:10:51.783Z,6472
2018-05-09T07:11:32.327Z,6232
2018-05-09T07:12:12.806Z,6516
2018-05-09T07:12:53.313Z,6656
2018-05-09T07:13:33.808Z,6480
2018-05-09T07:14:14.300Z,5484
2018-05-09T07:14:54.767Z,6116
2018-05-09T07:15:35.454Z,6280
2018-05-09T07:16:15.966Z,6524
2018-05-09T07:16:56.410Z,6548
2018-05-09T07:17:36.952Z,6544
2018-05-09T07:18:17.443Z,6580
2018-05-09T07:18:57.982Z,6668
2018-05-09T07:19:38.479Z,6516
2018-05-09T07:20:18.980Z,6884
2018-05-09T07:20:59.538Z,7136
2018-05-09T07:21:39.980Z,7476
2018-05-09T07:22:20.493Z,7344
2018-05-09T07:23:01.265Z,7288
2018-05-09T07:23:41.747Z,7344
2018-05-09T07:24:22.220Z,7392
2018-05-09T07:25:02.700Z,7416
2018-05-09T07:25:45.291Z,7284
2018-05-09T07:26:25.445Z,7244
2018-05-09T07:27:05.954Z,6756
2018-05-09T07:27:46.420Z,6860
2018-05-09T07:28:26.938Z,6300
2018-05-09T07:29:07.442Z,5228
2018-05-09T07:29:47.923Z,4812
2018-05-09T07:30:28.427Z,5264
2018-05-09T07:31:08.931Z,5640
2018-05-09T07:31:49.427Z,5736
2018-05-09T07:32:29.909Z,5472
2018-05-09T07:33:10.446Z,5272
2018-05-09T07:33:50.916Z,5556
2018-05-09T07:34:31.470Z,5328
2018-05-09T07:35:11.931Z,5076
2018-05-09T07:35:52.431Z,5424
2018-05-09T07:36:32.888Z,5692
2018-05-09T07:37:13.382Z,5732
2018-05-09T07:37:54.080Z,6092
2018-05-09T07:38:34.633Z,6196
2018-05-09T07:39:15.199Z,6272
2018-05-09T07:39:55.578Z,6592
2018-05-09T07:40:36.084Z,6832
2018-05-09T07:41:16.557Z,6324
2018-05-09T07:41:57.078Z,6184
2018-05-09T07:42:37.576Z,6328
2018-05-09T07:43:18.108Z,6536
2018-05-09T07:43:58.609Z,6272
2018-05-09T07:44:39.055Z,6444
2018-05-09T07:45:19.579Z,6176
2018-05-09T07:46:00.080Z,6392
2018-05-09T07:46:40.546Z,6296
2018-05-09T07:47:21.029Z,6108
2018-05-09T07:48:01.553Z,6052
2018-05-09T07:48:42.347Z,5976
2018-05-09T07:49:22.575Z,5804
2018-05-09T07:50:03.086Z,5736
2018-05-09T07:50:43.668Z,5748
2018-05-09T07:51:24.266Z,5640
2018-05-09T07:52:04.813Z,5300
2018-05-09T07:52:45.278Z,5276
2018-05-09T07:53:25.795Z,5004
2018-05-09T07:54:06.300Z,4984
2018-05-09T07:54:46.829Z,5192
2018-05-09T07:55:27.351Z,4912
2018-05-09T07:56:07.855Z,4652
2018-05-09T07:56:48.327Z,4376
2018-05-09T07:57:28.806Z,4404
2018-05-09T07:58:09.324Z,4460
2018-05-09T07:58:49.795Z,4700
2018-05-09T07:59:30.300Z,4636
2018-05-09T08:00:10.775Z,4592
2018-05-09T08:00:51.450Z,4388
2018-05-09T08:01:31.907Z,4212
2018-05-09T08:02:12.379Z,4388
2018-05-09T08:02:52.902Z,4592
2018-05-09T08:03:33.370Z,4576
2018-05-09T08:04:13.896Z,4628
2018-05-09T08:04:54.420Z,4860
2018-05-09T08:05:34.902Z,5032
2018-05-09T08:06:15.421Z,5080
2018-05-09T08:06:55.960Z,5208
2018-05-09T08:07:36.632Z,4788
2018-05-09T08:08:17.182Z,4792
2018-05-09T08:08:57.661Z,4904
2018-05-09T08:09:38.174Z,4852
2018-05-09T08:10:18.684Z,4472
2018-05-09T08:10:59.145Z,4524
2018-05-09T08:11:39.680Z,4452
2018-05-09T08:12:20.164Z,4420
2018-05-09T08:13:00.624Z,4524
2018-05-09T08:13:41.160Z,4248
2018-05-09T08:14:21.657Z,4168
2018-05-09T08:15:02.333Z,4040
2018-05-09T08:15:42.884Z,4084
2018-05-09T08:16:23.391Z,4140
2018-05-09T08:17:03.859Z,4152
2018-05-09T08:17:44.356Z,3996
2018-05-09T08:18:24.889Z,3960
2018-05-09T08:19:05.387Z,4064
2018-05-09T08:19:45.868Z,4100
2018-05-09T08:20:26.357Z,4152
2018-05-09T08:21:06.907Z,4428
2018-05-09T08:21:47.429Z,4344
2018-05-09T08:22:28.054Z,4280
2018-05-09T08:23:08.548Z,4480
2018-05-09T08:23:49.105Z,4776
2018-05-09T08:24:29.563Z,4940
2018-05-09T08:25:10.084Z,4968
2018-05-09T08:25:50.568Z,4916
2018-05-09T08:26:31.098Z,4968
2018-05-09T08:27:11.658Z,4872
2018-05-09T08:27:52.157Z,4864
2018-05-09T08:28:32.780Z,4844
2018-05-09T08:29:13.359Z,4780
2018-05-09T08:29:53.845Z,4652
2018-05-09T08:30:34.355Z,4516
2018-05-09T08:31:14.867Z,4412
2018-05-09T08:31:55.353Z,4668
2018-05-09T08:32:35.965Z,4536
2018-05-09T08:33:16.366Z,4568
2018-05-09T08:33:56.865Z,4560
2018-05-09T08:34:37.554Z,4580
2018-05-09T08:35:18.057Z,4168
2018-05-09T08:35:58.538Z,4460
2018-05-09T08:36:38.986Z,4072
2018-05-09T08:37:19.521Z,4084
2018-05-09T08:37:59.992Z,4448
2018-05-09T08:38:40.544Z,4364
2018-05-09T08:39:20.996Z,4040
2018-05-09T08:40:01.452Z,4124
2018-05-09T08:40:41.982Z,4108
2018-05-09T08:41:22.449Z,4164
2018-05-09T08:42:02.960Z,4248
2018-05-09T08:42:43.434Z,4040
2018-05-09T08:43:24.023Z,4300
2018-05-09T08:44:04.489Z,4336
2018-05-09T08:44:44.928Z,4376
2018-05-09T08:45:25.493Z,4332
2018-05-09T08:46:05.945Z,4324
2018-05-09T08:46:46.428Z,4240
2018-05-09T08:47:26.964Z,4164
2018-05-09T08:48:07.498Z,4272
2018-05-09T08:48:48.017Z,4400
2018-05-09T08:49:28.595Z,4060
2018-05-09T08:50:09.083Z,4492
2018-05-09T08:50:49.545Z,4460
2018-05-09T08:51:30.114Z,4424
2018-05-09T08:52:10.656Z,4432
2018-05-09T08:52:51.119Z,4440
2018-05-09T08:53:31.658Z,4444
2018-05-09T08:54:12.178Z,4468
2018-05-09T08:54:52.731Z,4476
2018-05-09T08:55:33.266Z,4488
2018-05-09T08:56:13.702Z,4500
2018-05-09T08:56:54.169Z,4520
2018-05-09T08:57:34.668Z,4532
2018-05-09T08:58:15.221Z,4556
2018-05-09T08:58:55.769Z,4576
2018-05-09T08:59:36.220Z,4584
2018-05-09T09:00:16.761Z,4572
2018-05-09T09:00:57.368Z,4540
2018-05-09T09:01:37.886Z,4532
2018-05-09T09:02:18.437Z,4496
2018-05-09T09:03:00.201Z,4464
2018-05-09T09:03:40.739Z,4428
2018-05-09T09:04:21.273Z,4392
2018-05-09T09:05:01.683Z,4316
2018-05-09T09:05:42.236Z,4244
2018-05-09T09:06:22.749Z,4168
2018-05-09T09:07:03.286Z,4080
2018-05-09T09:07:43.744Z,3992
2018-05-09T09:08:24.289Z,3908
2018-05-09T09:09:04.805Z,3848
2018-05-09T09:09:45.293Z,3800
2018-05-09T09:10:25.781Z,3752
2018-05-09T09:11:06.389Z,3712
2018-05-09T09:11:46.905Z,3684
2018-05-09T09:12:27.337Z,3656
2018-05-09T09:13:07.827Z,3632
2018-05-09T09:13:48.432Z,3608
2018-05-09T09:14:28.972Z,3588
2018-05-09T09:15:09.428Z,3572
2018-05-09T09:15:49.973Z,3568
2018-05-09T09:16:30.427Z,3556
2018-05-09T09:17:10.898Z,3564
2018-05-09T09:17:51.377Z,3556
2018-05-09T09:18:32.067Z,3560
2018-05-09T09:19:12.605Z,3572
2018-05-09T09:19:53.349Z,3588
2018-05-09T09:20:33.849Z,3600
2018-05-09T09:21:14.304Z,3612
2018-05-09T09:21:54.835Z,3608
2018-05-09T09:22:35.312Z,3604
2018-05-09T09:23:15.864Z,3420
2018-05-09T09:23:56.609Z,3576